Time;durP1;ratioP1;P1;durP2;ratioP2;P2;SDS_P1;SDS_P2;PMS_P1;PMS_P2;Temp;Humidity;BMP_temperature;BMP_pressure;BME280_temperature;BME280_humidity;BME280_pressure;Samples;Min_cycle;Max_cycle;Signal;HPM_P1;HPM_P2
2023/06/23 00:00:33;;;;;;;7.07;6.37;;;;;;;22.35;66.35;100956.38;4996356;28;97343;-79
2023/06/23 00:02:58;;;;;;;7.43;6.60;;;;;;;22.32;66.34;100960.31;4975438;28;100681;-81
2023/06/23 00:05:25;;;;;;;7.10;6.40;;;;;;;22.29;66.33;100966.31;4990430;28;97308;-81
2023/06/23 00:07:50;;;;;;;7.10;6.40;;;;;;;22.25;66.60;100968.78;4988513;28;98925;-80
2023/06/23 00:10:16;;;;;;;6.90;6.30;;;;;;;22.23;66.37;100977.00;4973987;28;99171;-81
2023/06/23 00:12:41;;;;;;;5.90;5.40;;;;;;;22.16;66.38;100978.53;4991749;28;106104;-81
2023/06/23 00:15:08;;;;;;;7.23;6.63;;;;;;;22.11;66.75;100964.69;4990866;28;97058;-83
2023/06/23 00:17:36;;;;;;;6.60;6.00;;;;;;;22.04;66.69;100973.91;4988921;28;97175;-80
2023/06/23 00:20:03;;;;;;;7.33;6.70;;;;;;;22.02;66.87;100987.72;4987652;28;97911;-81
2023/06/23 00:22:29;;;;;;;6.47;5.83;;;;;;;22.01;66.96;100992.59;4963531;28;100447;-82
2023/06/23 00:24:54;;;;;;;6.33;5.73;;;;;;;22.00;66.85;100979.13;4963056;28;96963;-80
2023/06/23 00:27:19;;;;;;;5.97;5.47;;;;;;;21.97;66.77;100983.06;4974785;28;97609;-81
2023/06/23 00:29:45;;;;;;;6.53;5.87;;;;;;;21.98;66.73;100985.31;4988996;28;97878;-82
2023/06/23 00:32:10;;;;;;;8.80;5.47;;;;;;;21.92;66.85;101015.59;4989846;28;97870;-81
2023/06/23 00:34:36;;;;;;;5.87;5.37;;;;;;;21.93;66.69;101000.25;4970177;28;97651;-81
2023/06/23 00:37:01;;;;;;;6.30;5.80;;;;;;;21.90;67.13;101012.59;4987660;28;97264;-83
2023/06/23 00:39:26;;;;;;;6.20;5.60;;;;;;;21.92;66.89;101028.84;4972771;28;99139;-83
2023/06/23 00:41:53;;;;;;;8.60;5.73;;;;;;;21.93;66.87;101019.13;4975801;28;99394;-80
2023/06/23 00:44:18;;;;;;;6.30;5.70;;;;;;;21.88;66.84;101012.41;4972582;28;97472;-82
2023/06/23 00:46:45;;;;;;;5.30;4.90;;;;;;;21.89;67.00;101013.13;4980791;28;98127;-81
2023/06/23 00:49:13;;;;;;;6.23;5.73;;;;;;;21.90;66.97;101014.66;4985402;28;97150;-81
2023/06/23 00:51:39;;;;;;;5.60;5.10;;;;;;;21.85;66.74;101021.94;4990035;28;96781;-83
2023/06/23 00:54:05;;;;;;;6.47;5.87;;;;;;;21.83;66.92;101010.53;4988978;28;97158;-84
2023/06/23 00:56:31;;;;;;;5.77;5.37;;;;;;;21.81;66.95;101009.59;4972630;28;97027;-80
2023/06/23 00:58:57;;;;;;;6.67;5.80;;;;;;;21.76;67.11;101016.13;4989130;28;97392;-81
2023/06/23 01:01:23;;;;;;;5.93;5.40;;;;;;;21.69;67.00;101045.63;4989203;28;97810;-81
2023/06/23 01:03:48;;;;;;;6.57;5.97;;;;;;;21.64;67.08;101004.56;4988743;28;96708;-80
2023/06/23 01:06:25;;;;;;;6.13;5.60;;;;;;;21.62;67.56;101027.50;4995824;28;96585;-82
2023/06/23 01:09:09;;;;;;;6.13;5.60;;;;;;;21.59;68.23;101011.09;4977056;28;100365;-80
2023/06/23 01:11:50;;;;;;;5.90;5.40;;;;;;;21.57;68.10;101022.13;4990591;28;97517;-81
2023/06/23 01:14:23;;;;;;;5.77;5.27;;;;;;;21.57;67.55;101013.72;4989655;28;96684;-81
2023/06/23 01:17:24;;;;;;;6.60;6.00;;;;;;;21.51;68.07;101015.97;4993605;28;97529;-81
2023/06/23 01:20:09;;;;;;;5.53;5.13;;;;;;;21.48;67.88;101026.22;4989917;28;97728;-80
2023/06/23 01:22:59;;;;;;;5.90;5.10;;;;;;;21.51;67.72;101027.88;4993496;28;96746;-82
2023/06/23 01:25:31;;;;;;;6.13;5.40;;;;;;;21.48;67.46;101033.88;4994569;28;97191;-81
2023/06/23 01:28:17;;;;;;;6.50;5.87;;;;;;;21.47;67.85;101035.91;4994564;28;97778;-80
2023/06/23 01:30:46;;;;;;;7.70;5.77;;;;;;;21.46;67.47;101030.88;4961881;28;100237;-80
2023/06/23 01:33:18;;;;;;;7.50;6.13;;;;;;;21.45;67.69;101032.19;4997137;28;98616;-81
2023/06/23 01:35:51;;;;;;;5.97;5.47;;;;;;;21.41;67.68;101029.00;4967699;28;97420;-82
2023/06/23 01:38:27;;;;;;;6.40;5.90;;;;;;;21.34;67.80;101033.28;4997439;28;96906;-81
2023/06/23 01:40:54;;;;;;;6.27;5.67;;;;;;;21.34;67.72;101032.56;4971236;28;99694;-80
2023/06/23 01:43:29;;;;;;;5.97;5.47;;;;;;;21.33;67.58;101028.25;5001176;28;98322;-80
2023/06/23 01:46:08;;;;;;;6.43;5.93;;;;;;;21.30;67.83;101032.16;4995440;28;97344;-83
2023/06/23 01:48:38;;;;;;;6.20;5.67;;;;;;;21.29;67.70;101025.09;4993111;28;96677;-82
2023/06/23 01:51:06;;;;;;;6.30;5.70;;;;;;;21.26;67.67;101034.59;4980937;28;99692;-81
2023/06/23 01:53:32;;;;;;;6.87;6.27;;;;;;;21.24;67.74;101023.97;4996003;28;96647;-81
2023/06/23 01:56:01;;;;;;;7.03;5.60;;;;;;;21.26;67.70;101026.94;4997062;28;97470;-83
2023/06/23 01:58:28;;;;;;;6.77;6.07;;;;;;;21.25;67.79;101025.44;4997184;28;97377;-83
2023/06/23 02:00:54;;;;;;;6.03;5.53;;;;;;;21.25;67.81;101021.91;5002195;28;98441;-83
2023/06/23 02:03:20;;;;;;;7.30;6.10;;;;;;;21.27;67.73;101019.31;4995939;28;97389;-82
2023/06/23 02:05:48;;;;;;;6.70;6.10;;;;;;;21.24;67.68;101051.19;4993788;28;99411;-81
2023/06/23 02:08:16;;;;;;;6.63;6.03;;;;;;;21.24;67.88;101028.81;4968276;28;97349;-80
2023/06/23 02:10:42;;;;;;;7.07;6.47;;;;;;;21.23;67.75;101044.84;4996437;28;98108;-81
2023/06/23 02:13:11;;;;;;;7.40;6.80;;;;;;;21.26;67.93;101026.19;4998134;28;97207;-82
2023/06/23 02:15:38;;;;;;;6.40;5.80;;;;;;;21.27;68.09;101024.91;4976829;28;97577;-83
2023/06/23 02:18:05;;;;;;;7.30;6.63;;;;;;;21.26;67.86;101054.19;4995707;28;97392;-84
2023/06/23 02:20:32;;;;;;;7.40;6.80;;;;;;;21.23;68.10;101030.13;4978124;28;99295;-80
2023/06/23 02:22:58;;;;;;;6.60;6.07;;;;;;;21.22;68.13;101023.03;4977141;28;99659;-81
2023/06/23 02:25:24;;;;;;;6.87;6.23;;;;;;;21.22;68.18;101031.41;4993116;28;97196;-80
2023/06/23 02:27:51;;;;;;;6.43;5.87;;;;;;;21.16;68.28;101022.47;4991368;28;97032;-81
2023/06/23 02:30:17;;;;;;;7.40;6.80;;;;;;;21.17;68.37;101030.28;4992699;28;97595;-82
2023/06/23 02:32:45;;;;;;;7.23;6.53;;;;;;;21.19;68.37;101043.72;4995146;28;97736;-83
2023/06/23 02:35:14;;;;;;;6.83;5.97;;;;;;;21.20;68.27;101034.78;4994092;28;96771;-81
2023/06/23 02:37:43;;;;;;;6.50;5.90;;;;;;;21.18;68.28;101043.00;4994463;28;97423;-81
2023/06/23 02:40:16;;;;;;;6.97;6.37;;;;;;;21.21;68.31;101027.16;4995859;28;100758;-81
2023/06/23 02:42:46;;;;;;;7.27;6.57;;;;;;;21.23;68.28;101039.25;4960092;28;99723;-80
2023/06/23 02:45:19;;;;;;;5.67;5.20;;;;;;;21.24;68.58;101045.59;4977059;28;97022;-81
2023/06/23 02:47:47;;;;;;;6.17;5.30;;;;;;;21.22;68.21;101042.63;4996153;28;97044;-80
2023/06/23 02:50:16;;;;;;;6.53;4.90;;;;;;;21.21;68.11;101055.13;4972400;28;100356;-81
2023/06/23 02:52:46;;;;;;;4.90;4.50;;;;;;;21.21;68.34;101047.47;4961173;28;99583;-82
2023/06/23 02:55:13;;;;;;;4.30;4.00;;;;;;;21.20;68.36;101051.59;4966914;28;97455;-81
2023/06/23 02:57:40;;;;;;;4.50;4.10;;;;;;;21.14;68.35;101051.00;4974787;28;96878;-78
2023/06/23 03:00:18;;;;;;;4.57;4.17;;;;;;;21.18;68.31;101059.03;4985821;28;97081;-78
2023/06/23 03:02:47;;;;;;;4.07;3.77;;;;;;;21.16;68.27;101056.03;4988356;28;97866;-79
2023/06/23 03:05:13;;;;;;;4.47;4.07;;;;;;;21.10;68.55;101061.06;4991287;28;97154;-80
2023/06/23 03:07:39;;;;;;;3.97;3.70;;;;;;;21.10;68.52;101061.06;4974811;28;97329;-78
2023/06/23 03:10:08;;;;;;;4.10;3.70;;;;;;;21.07;68.85;101053.78;4989168;28;97246;-81
2023/06/23 03:12:34;;;;;;;4.10;3.70;;;;;;;21.03;68.65;101053.38;4986047;28;97792;-80
2023/06/23 03:15:01;;;;;;;4.10;3.80;;;;;;;20.98;68.61;101063.44;4975550;28;97364;-82
2023/06/23 03:17:31;;;;;;;4.50;4.20;;;;;;;21.00;68.57;101062.88;4979186;28;97278;-82
2023/06/23 03:20:22;;;;;;;4.57;4.17;;;;;;;20.99;69.72;101055.78;4987765;28;100389;-80
2023/06/23 03:23:11;;;;;;;4.23;3.93;;;;;;;21.01;68.94;101067.94;4984788;28;99591;-80
2023/06/23 03:25:39;;;;;;;4.10;3.80;;;;;;;21.02;68.83;101063.81;4991413;28;97012;-81
2023/06/23 03:28:09;;;;;;;4.17;3.87;;;;;;;21.01;68.73;101061.56;4994337;28;97433;-80
2023/06/23 03:30:45;;;;;;;7.20;3.87;;;;;;;20.99;69.34;101069.78;4964755;28;99168;-80
2023/06/23 03:33:22;;;;;;;4.07;3.70;;;;;;;20.98;69.32;101071.06;4965332;28;100269;-81
2023/06/23 03:35:49;;;;;;;5.00;4.60;;;;;;;20.98;68.91;101068.28;4989301;28;97618;-80
2023/06/23 03:38:17;;;;;;;4.67;4.37;;;;;;;21.00;68.94;101068.47;4989963;28;100142;-80
2023/06/23 03:40:49;;;;;;;3.80;3.53;;;;;;;20.96;69.09;101076.47;4992343;28;98328;-80
2023/06/23 03:43:26;;;;;;;4.67;4.17;;;;;;;20.93;69.22;101065.09;4989972;28;100370;-80
2023/06/23 03:45:54;;;;;;;3.97;3.67;;;;;;;20.90;68.91;101063.41;4976123;28;96779;-79
2023/06/23 03:48:22;;;;;;;4.10;3.80;;;;;;;20.90;68.94;101115.81;4979901;28;97317;-81
2023/06/23 03:50:50;;;;;;;3.70;3.40;;;;;;;20.84;69.19;101070.47;4991086;28;97141;-79
2023/06/23 03:53:17;;;;;;;3.60;3.30;;;;;;;20.78;69.15;101076.22;4974885;28;100708;-79
2023/06/23 03:55:45;;;;;;;3.50;3.30;;;;;;;20.79;69.23;101079.78;4989622;28;97551;-80
2023/06/23 03:58:13;;;;;;;5.30;3.50;;;;;;;20.79;69.14;101099.34;4970083;28;96855;-79
2023/06/23 04:00:40;;;;;;;3.70;3.40;;;;;;;20.71;69.15;101090.94;4974323;28;99615;-81
2023/06/23 04:03:07;;;;;;;3.70;3.40;;;;;;;20.72;69.30;101100.81;4989094;28;98003;-79
2023/06/23 04:05:35;;;;;;;3.03;2.73;;;;;;;20.68;69.15;101105.28;4989929;28;97121;-79
2023/06/23 04:08:03;;;;;;;3.53;3.27;;;;;;;20.59;69.46;101125.34;4989728;28;97042;-80
2023/06/23 04:10:30;;;;;;;2.97;2.77;;;;;;;20.53;69.32;101127.56;4995506;28;98467;-79
2023/06/23 04:12:57;;;;;;;2.80;2.60;;;;;;;20.48;69.50;101118.03;4963897;28;100099;-81
2023/06/23 04:15:25;;;;;;;2.50;2.40;;;;;;;20.44;69.31;101116.88;4991044;28;97046;-81
2023/06/23 04:17:54;;;;;;;2.53;2.43;;;;;;;20.39;69.47;101124.13;4992578;28;97269;-80
2023/06/23 04:20:21;;;;;;;2.87;2.67;;;;;;;20.34;69.50;101138.97;4974062;28;101000;-81
2023/06/23 04:22:49;;;;;;;3.87;3.43;;;;;;;20.30;69.53;101124.63;4991462;28;97527;-81
2023/06/23 04:25:17;;;;;;;3.13;2.93;;;;;;;20.27;69.68;101131.28;4978938;28;96827;-79
2023/06/23 04:27:43;;;;;;;2.70;2.60;;;;;;;20.26;69.39;101135.41;4988606;28;96824;-80
2023/06/23 04:30:10;;;;;;;2.80;2.60;;;;;;;20.27;69.52;101142.47;4989495;28;99905;-80
2023/06/23 04:32:37;;;;;;;3.73;3.07;;;;;;;20.24;69.63;101129.63;4978346;28;100209;-81
2023/06/23 04:35:03;;;;;;;3.00;2.80;;;;;;;20.27;69.46;101131.28;4993703;28;97073;-83
2023/06/23 04:37:36;;;;;;;2.73;2.63;;;;;;;20.25;69.58;101142.28;4974254;28;96925;-80
2023/06/23 04:40:25;;;;;;;3.10;2.90;;;;;;;20.17;70.20;101155.41;4988375;28;99691;-81
2023/06/23 04:42:59;;;;;;;2.80;2.60;;;;;;;20.13;69.55;101147.41;4988878;28;98511;-80
2023/06/23 04:45:27;;;;;;;2.30;2.20;;;;;;;20.07;69.58;101149.56;4988631;28;97626;-80
2023/06/23 04:48:01;;;;;;;2.03;1.93;;;;;;;19.99;70.53;101153.59;4974716;28;97198;-81
2023/06/23 04:50:33;;;;;;;2.23;2.13;;;;;;;19.97;70.22;101159.72;4994359;28;97421;-82
2023/06/23 04:53:05;;;;;;;2.70;1.70;;;;;;;19.96;69.86;101163.06;4976807;28;99547;-81
2023/06/23 04:55:33;;;;;;;2.37;2.27;;;;;;;19.95;69.74;101176.28;4991003;28;96795;-81
2023/06/23 04:58:02;;;;;;;2.33;2.13;;;;;;;19.95;69.74;101175.53;4971985;28;97188;-80
2023/06/23 05:00:29;;;;;;;2.07;1.90;;;;;;;19.86;69.92;101179.56;4964469;28;99811;-82
2023/06/23 05:02:57;;;;;;;2.50;2.30;;;;;;;19.83;69.80;101177.84;4991985;28;97305;-82
2023/06/23 05:05:26;;;;;;;2.70;2.50;;;;;;;19.82;69.85;101187.53;4992311;28;97082;-79
2023/06/23 05:07:53;;;;;;;2.67;2.57;;;;;;;19.79;69.68;101182.28;4972389;28;96948;-80
2023/06/23 05:10:20;;;;;;;2.67;2.50;;;;;;;19.76;69.53;101197.31;4970528;28;99227;-81
2023/06/23 05:12:49;;;;;;;3.03;2.83;;;;;;;19.74;69.62;101211.06;4993515;28;97768;-81
2023/06/23 05:15:17;;;;;;;3.00;2.80;;;;;;;19.65;69.77;101198.34;4991963;28;96882;-82
2023/06/23 05:17:46;;;;;;;2.80;2.57;;;;;;;19.61;69.74;101202.75;4973691;28;97099;-80
2023/06/23 05:20:14;;;;;;;3.20;3.00;;;;;;;19.60;69.74;101196.41;4978979;28;98883;-81
2023/06/23 05:22:43;;;;;;;3.17;2.97;;;;;;;19.61;69.68;101247.41;4975718;28;100182;-81
2023/06/23 05:25:10;;;;;;;2.90;2.70;;;;;;;19.56;69.68;101218.34;4991350;28;97808;-81
2023/06/23 05:27:37;;;;;;;3.27;3.07;;;;;;;19.53;69.47;101213.09;4992661;28;97160;-82
2023/06/23 05:30:05;;;;;;;3.50;3.30;;;;;;;19.54;69.71;101217.38;4989881;28;97727;-83
2023/06/23 05:32:33;;;;;;;2.80;2.60;;;;;;;19.50;69.72;101233.69;4989966;28;97691;-81
2023/06/23 05:35:03;;;;;;;3.23;3.03;;;;;;;19.44;69.87;101242.94;4991852;28;96795;-81
2023/06/23 05:37:31;;;;;;;2.90;2.70;;;;;;;19.40;69.81;101236.94;4991913;28;97124;-81
2023/06/23 05:40:00;;;;;;;4.17;3.27;;;;;;;19.36;69.96;101232.97;4971557;28;100592;-80
2023/06/23 05:42:27;;;;;;;3.83;3.60;;;;;;;19.33;69.68;101257.09;4989785;28;99354;-81
2023/06/23 05:44:53;;;;;;;4.27;3.37;;;;;;;19.32;69.81;101252.06;4989528;28;96752;-80
2023/06/23 05:47:25;;;;;;;3.80;3.50;;;;;;;19.31;69.82;101256.13;4977030;28;97394;-81
2023/06/23 05:49:53;;;;;;;3.70;3.40;;;;;;;19.30;69.68;101271.38;4993343;28;97457;-81
2023/06/23 05:52:20;;;;;;;3.60;3.30;;;;;;;19.21;69.71;101252.28;4978326;28;99319;-81
2023/06/23 05:54:49;;;;;;;4.20;3.60;;;;;;;19.19;69.86;101264.00;4985847;28;97181;-82
2023/06/23 05:57:26;;;;;;;3.90;3.60;;;;;;;19.22;69.91;101276.13;4969082;28;97044;-82
2023/06/23 06:00:05;;;;;;;3.23;3.03;;;;;;;19.20;70.20;101287.03;4994515;28;97837;-82
2023/06/23 06:02:35;;;;;;;3.23;3.03;;;;;;;19.27;69.56;101312.28;4992863;28;99389;-82
2023/06/23 06:05:05;;;;;;;3.67;3.37;;;;;;;19.25;69.35;101311.28;4978914;28;97391;-81
2023/06/23 06:07:32;;;;;;;4.17;3.77;;;;;;;19.31;69.40;101323.84;4995083;28;96978;-81
2023/06/23 06:10:00;;;;;;;3.57;3.37;;;;;;;19.39;69.13;101329.56;4977069;28;100376;-83
2023/06/23 06:12:27;;;;;;;4.10;3.80;;;;;;;19.42;69.21;101354.34;4995285;28;97387;-82
2023/06/23 06:14:55;;;;;;;3.60;3.33;;;;;;;19.46;69.10;101361.66;4995030;28;97689;-82
2023/06/23 06:17:23;;;;;;;4.10;3.80;;;;;;;19.49;68.83;101355.75;4992383;28;97359;-82
2023/06/23 06:19:49;;;;;;;4.23;3.90;;;;;;;19.47;69.02;101357.56;4991271;28;97626;-81
2023/06/23 06:22:15;;;;;;;3.47;3.23;;;;;;;19.50;68.88;101376.06;4996964;28;97724;-81
2023/06/23 06:24:43;;;;;;;3.80;3.50;;;;;;;19.53;68.83;101372.19;4995073;28;96692;-83
2023/06/23 06:27:09;;;;;;;4.20;3.90;;;;;;;19.56;68.58;101382.28;4985170;28;97108;-82
2023/06/23 06:29:36;;;;;;;3.53;3.20;;;;;;;19.58;68.60;101396.44;4995059;28;98810;-83
2023/06/23 06:32:05;;;;;;;3.90;3.57;;;;;;;19.55;68.62;101408.69;4994587;28;97538;-83
2023/06/23 06:34:32;;;;;;;3.70;3.40;;;;;;;19.59;68.55;101404.28;4978030;28;97168;-83
2023/06/23 06:37:00;;;;;;;3.63;3.33;;;;;;;19.62;68.62;101396.88;4995138;28;97198;-83
2023/06/23 06:39:28;;;;;;;3.97;3.67;;;;;;;19.58;68.71;101408.38;4978739;28;99183;-81
2023/06/23 06:41:53;;;;;;;3.70;3.40;;;;;;;19.57;68.80;101406.13;4975839;28;100023;-82
2023/06/23 06:44:19;;;;;;;3.67;3.40;;;;;;;19.64;68.91;101427.78;4999987;28;97523;-83
2023/06/23 06:46:46;;;;;;;4.57;3.77;;;;;;;19.69;68.71;101419.31;4979272;28;96962;-81
2023/06/23 06:49:15;;;;;;;4.10;3.80;;;;;;;19.70;68.50;101425.66;4994658;28;97778;-80
2023/06/23 06:51:42;;;;;;;3.70;3.40;;;;;;;19.72;68.53;101432.22;4974376;28;100646;-81
2023/06/23 06:54:08;;;;;;;4.07;3.77;;;;;;;19.72;68.50;101448.22;4992074;28;96642;-82
2023/06/23 06:56:34;;;;;;;4.00;3.70;;;;;;;19.73;68.64;101446.91;4976322;28;96779;-82
2023/06/23 06:59:00;;;;;;;3.77;3.47;;;;;;;19.75;68.53;101452.69;4979304;28;99754;-82
2023/06/23 07:01:26;;;;;;;4.37;3.57;;;;;;;19.76;68.60;101463.34;4974805;28;99954;-83
2023/06/23 07:03:53;;;;;;;4.30;4.00;;;;;;;19.81;68.51;101475.72;4993247;28;96742;-82
2023/06/23 07:06:18;;;;;;;3.63;3.40;;;;;;;19.86;68.49;101486.00;4983332;28;97756;-81
2023/06/23 07:08:43;;;;;;;7.90;3.53;;;;;;;19.90;68.44;101483.63;4983202;28;98090;-81
2023/06/23 07:11:09;;;;;;;3.97;3.67;;;;;;;19.93;68.34;101480.53;4983215;28;98986;-83
2023/06/23 07:13:34;;;;;;;4.00;3.70;;;;;;;19.99;68.34;101502.75;4969373;28;97221;-81
2023/06/23 07:15:59;;;;;;;3.53;3.33;;;;;;;20.00;68.15;101515.44;4968769;28;97498;-81
2023/06/23 07:18:24;;;;;;;5.70;4.23;;;;;;;20.00;68.27;101507.06;4983017;28;98950;-81
2023/06/23 07:20:50;;;;;;;3.43;3.13;;;;;;;20.06;67.93;101519.63;4968905;28;99927;-79
2023/06/23 07:23:16;;;;;;;4.60;4.27;;;;;;;20.06;68.21;101521.69;4983789;28;96896;-81
2023/06/23 07:25:41;;;;;;;4.40;3.80;;;;;;;20.09;67.98;101540.91;4983464;28;97376;-81
2023/06/23 07:28:06;;;;;;;4.90;4.50;;;;;;;20.06;68.32;101530.06;4968664;28;102433;-82
2023/06/23 07:30:32;;;;;;;4.67;4.27;;;;;;;20.07;68.44;101554.66;4980686;28;99133;-81
2023/06/23 07:32:57;;;;;;;4.40;4.00;;;;;;;20.12;68.18;101550.25;4964976;28;97634;-81
2023/06/23 07:35:23;;;;;;;4.63;3.50;;;;;;;20.13;68.06;101548.97;4985848;28;99162;-78
2023/06/23 07:37:48;;;;;;;4.90;4.50;;;;;;;20.15;68.08;101560.38;4968210;28;104454;-79
2023/06/23 07:40:14;;;;;;;4.20;3.90;;;;;;;20.16;68.16;101576.59;4981360;28;98863;-79
2023/06/23 07:42:39;;;;;;;5.10;4.70;;;;;;;20.17;68.19;101560.56;4979072;28;96875;-81
2023/06/23 07:45:05;;;;;;;4.80;4.40;;;;;;;20.23;68.09;101563.28;4968645;28;97610;-81
2023/06/23 07:47:30;;;;;;;4.80;4.40;;;;;;;20.23;68.22;101572.41;4981263;28;98069;-81
2023/06/23 07:49:56;;;;;;;5.03;4.60;;;;;;;20.22;68.17;101570.19;4981513;28;97752;-81
2023/06/23 07:52:21;;;;;;;4.93;4.50;;;;;;;20.24;68.13;101584.38;4968018;28;97624;-80
2023/06/23 07:54:47;;;;;;;5.87;4.60;;;;;;;20.26;68.27;101581.78;4983347;28;101433;-81
2023/06/23 07:57:13;;;;;;;5.37;4.37;;;;;;;20.23;68.47;101611.56;4967338;28;99112;-80
2023/06/23 07:59:38;;;;;;;6.30;4.47;;;;;;;20.26;68.34;101599.31;4979404;28;97455;-79
2023/06/23 08:02:04;;;;;;;4.80;4.40;;;;;;;20.25;68.22;101599.84;4981202;28;98128;-82
2023/06/23 08:04:29;;;;;;;5.30;4.80;;;;;;;20.26;68.24;101616.06;4979983;28;97297;-80
2023/06/23 08:06:55;;;;;;;5.23;4.73;;;;;;;20.27;68.35;101611.97;4965626;28;99669;-80
2023/06/23 08:09:20;;;;;;;5.50;4.90;;;;;;;20.28;68.28;101624.66;4982168;28;100583;-80
2023/06/23 08:11:45;;;;;;;5.73;4.73;;;;;;;20.27;68.33;101620.34;4965629;28;97637;-79
2023/06/23 08:14:11;;;;;;;5.17;4.73;;;;;;;20.29;68.41;101631.75;4981219;28;97811;-81
2023/06/23 08:16:37;;;;;;;5.13;4.60;;;;;;;20.29;68.22;101631.75;4981402;28;98982;-82
2023/06/23 08:19:02;;;;;;;5.63;5.07;;;;;;;20.30;68.31;101649.28;4979302;28;97838;-80
2023/06/23 08:21:28;;;;;;;5.33;4.93;;;;;;;20.33;68.22;101642.63;4981470;28;97845;-80
2023/06/23 08:23:53;;;;;;;7.93;4.50;;;;;;;20.30;68.33;101654.88;4981417;28;97413;-80
2023/06/23 08:26:18;;;;;;;5.43;4.97;;;;;;;20.27;68.24;101659.50;4978358;28;98808;-78
2023/06/23 08:28:44;;;;;;;5.27;4.77;;;;;;;20.28;68.32;101661.00;4978699;28;97271;-78
2023/06/23 08:31:10;;;;;;;4.63;4.17;;;;;;;20.28;68.32;101655.41;4965190;28;97244;-80
2023/06/23 08:33:36;;;;;;;4.80;4.40;;;;;;;20.23;68.34;101664.66;4977635;28;97151;-80
2023/06/23 08:36:02;;;;;;;5.37;4.90;;;;;;;20.24;68.40;101668.19;4980451;28;97433;-80
2023/06/23 08:38:27;;;;;;;5.17;4.67;;;;;;;20.22;68.40;101676.38;4981007;28;97313;-80
2023/06/23 08:40:54;;;;;;;6.23;4.60;;;;;;;20.22;68.44;101688.31;4982090;28;98298;-80
2023/06/23 08:43:26;;;;;;;6.37;4.67;;;;;;;20.23;68.34;101689.03;4985132;28;97530;-80
2023/06/23 08:45:57;;;;;;;6.70;5.17;;;;;;;20.21;68.60;101686.78;4982462;28;98201;-81
2023/06/23 08:48:27;;;;;;;6.97;5.50;;;;;;;20.22;68.85;101705.06;4969663;28;99331;-81
2023/06/23 08:51:02;;;;;;;5.50;5.00;;;;;;;20.26;68.84;101704.75;4982927;28;97833;-82
2023/06/23 08:53:28;;;;;;;6.00;4.83;;;;;;;20.24;68.48;101699.72;4980957;28;97981;-80
2023/06/23 08:55:55;;;;;;;6.00;5.20;;;;;;;20.28;68.52;101702.16;4979604;28;97663;-81
2023/06/23 08:58:22;;;;;;;6.47;5.13;;;;;;;20.35;68.54;101705.09;4978249;28;96979;-83
2023/06/23 09:00:49;;;;;;;6.80;5.10;;;;;;;20.39;68.38;101711.13;4985353;28;96755;-80
2023/06/23 09:03:15;;;;;;;6.07;5.47;;;;;;;20.41;68.50;101711.34;4991704;28;96815;-81
2023/06/23 09:05:43;;;;;;;6.40;5.07;;;;;;;20.43;68.33;101717.16;4995831;28;96874;-81
2023/06/23 09:08:09;;;;;;;6.23;5.20;;;;;;;20.43;68.28;101713.59;4994651;28;97210;-80
2023/06/23 09:10:35;;;;;;;7.20;5.97;;;;;;;20.45;68.36;101731.34;4992746;28;96805;-81
2023/06/23 09:13:03;;;;;;;6.60;5.00;;;;;;;20.49;68.31;101714.22;4994180;28;97726;-80
2023/06/23 09:15:29;;;;;;;5.93;5.10;;;;;;;20.49;68.13;101728.97;4991088;28;97227;-80
2023/06/23 09:17:56;;;;;;;5.60;4.83;;;;;;;20.52;68.32;101735.53;4987905;28;97514;-81
2023/06/23 09:20:21;;;;;;;6.00;5.30;;;;;;;20.55;68.32;101732.41;4983833;28;96893;-80
2023/06/23 09:22:47;;;;;;;5.77;5.03;;;;;;;20.57;68.25;101731.91;4984775;28;98133;-81
2023/06/23 09:25:38;;;;;;;7.50;5.43;;;;;;;20.57;68.49;101727.06;4969327;28;100604;-80
2023/06/23 09:28:04;;;;;;;5.53;4.90;;;;;;;20.59;68.35;101732.13;4957904;28;99502;-80
2023/06/23 09:30:34;;;;;;;5.27;4.87;;;;;;;20.61;68.43;101743.53;4958798;28;98610;-80
2023/06/23 09:33:00;;;;;;;6.77;6.07;;;;;;;20.61;68.42;101752.66;4976065;28;97531;-80
2023/06/23 09:35:26;;;;;;;15.90;5.67;;;;;;;20.64;68.38;101745.97;4975184;28;98327;-79
2023/06/23 09:37:52;;;;;;;5.73;5.33;;;;;;;20.65;68.38;101755.91;4978375;28;98699;-81
2023/06/23 09:40:27;;;;;;;6.00;5.40;;;;;;;20.68;68.61;101751.28;4982529;28;97338;-79
2023/06/23 09:42:59;;;;;;;5.30;4.87;;;;;;;20.69;68.51;101756.31;4980712;28;97931;-81
2023/06/23 09:45:25;;;;;;;5.93;5.43;;;;;;;20.69;68.47;101750.72;4985064;28;97878;-81
2023/06/23 09:47:50;;;;;;;5.33;4.87;;;;;;;20.69;68.53;101763.94;4981662;28;96977;-79
2023/06/23 09:50:17;;;;;;;5.63;5.13;;;;;;;20.67;68.71;101761.69;4983780;28;98238;-80
2023/06/23 09:52:43;;;;;;;7.20;4.30;;;;;;;20.67;68.77;101770.09;4984929;28;97752;-81
2023/06/23 09:55:08;;;;;;;5.47;4.90;;;;;;;20.67;68.64;101756.09;4966081;28;100060;-80
2023/06/23 09:57:34;;;;;;;5.23;4.73;;;;;;;20.75;68.66;101784.94;4983010;28;97925;-81
2023/06/23 10:00:00;;;;;;;5.80;5.30;;;;;;;20.80;68.73;101769.34;4983068;28;100011;-80
2023/06/23 10:02:29;;;;;;;5.13;4.60;;;;;;;20.83;68.72;101782.28;4967980;28;97091;-79
2023/06/23 10:05:04;;;;;;;5.20;4.70;;;;;;;20.86;68.90;101781.19;4968753;28;99330;-80
2023/06/23 10:07:30;;;;;;;4.67;4.23;;;;;;;20.87;68.67;101779.91;4969632;28;100502;-81
2023/06/23 10:10:07;;;;;;;5.33;4.90;;;;;;;20.88;69.13;101773.75;4967959;28;97231;-80
2023/06/23 10:12:34;;;;;;;7.03;5.77;;;;;;;20.87;68.70;101783.47;4970096;28;98553;-80
2023/06/23 10:14:59;;;;;;;6.50;5.63;;;;;;;20.87;68.99;101775.06;4981809;28;97900;-81
2023/06/23 10:17:25;;;;;;;13.73;5.90;;;;;;;20.93;68.91;101791.72;4971540;28;99496;-80
2023/06/23 10:19:54;;;;;;;6.47;5.50;;;;;;;21.01;68.76;101786.25;4969425;28;97631;-80
2023/06/23 10:22:21;;;;;;;5.50;5.00;;;;;;;21.03;68.92;101792.06;4967586;28;97402;-80
2023/06/23 10:24:51;;;;;;;6.57;5.97;;;;;;;21.04;68.81;101793.59;4980649;28;96972;-80
2023/06/23 10:27:25;;;;;;;5.90;5.30;;;;;;;21.08;69.05;101799.66;4968023;28;101779;-81
2023/06/23 10:29:54;;;;;;;6.57;5.67;;;;;;;21.11;68.91;101798.53;4969311;28;98077;-81
2023/06/23 10:32:29;;;;;;;5.90;5.40;;;;;;;21.09;68.98;101804.69;4981790;28;97192;-80
2023/06/23 10:34:57;;;;;;;8.70;5.70;;;;;;;21.11;69.00;101809.75;4981862;28;98404;-82
2023/06/23 10:37:26;;;;;;;6.33;5.50;;;;;;;21.12;69.07;101812.00;4968674;28;99387;-81
2023/06/23 10:39:56;;;;;;;6.40;5.70;;;;;;;21.16;69.15;101812.44;4982536;28;97489;-81
2023/06/23 10:42:23;;;;;;;6.93;6.20;;;;;;;21.18;68.98;101809.88;4983595;28;98611;-82
2023/06/23 10:44:50;;;;;;;7.00;6.30;;;;;;;21.19;69.26;101816.19;4968359;28;99141;-82
2023/06/23 10:47:16;;;;;;;6.30;5.70;;;;;;;21.15;69.13;101812.97;4983215;28;99322;-82
2023/06/23 10:49:44;;;;;;;5.80;5.20;;;;;;;21.20;69.19;101824.06;4980189;28;98112;-80
2023/06/23 10:52:10;;;;;;;6.67;6.07;;;;;;;21.23;69.24;101822.97;4967763;28;98069;-81
2023/06/23 10:54:35;;;;;;;7.43;6.20;;;;;;;21.25;69.30;101825.25;4982477;28;97821;-82
2023/06/23 10:57:11;;;;;;;6.90;6.20;;;;;;;21.26;69.69;101830.31;4966981;28;99856;-82
2023/06/23 10:59:57;;;;;;;6.63;5.80;;;;;;;21.32;69.62;101827.38;4982520;28;96663;-80
2023/06/23 11:02:23;;;;;;;5.63;5.10;;;;;;;21.29;69.33;101818.03;4981719;28;97218;-80
2023/06/23 11:05:04;;;;;;;6.47;5.87;;;;;;;21.33;70.03;101834.50;4968049;28;100192;-81
2023/06/23 11:07:29;;;;;;;6.23;5.67;;;;;;;21.37;69.54;101837.72;4984787;28;99339;-81
2023/06/23 11:09:55;;;;;;;6.77;6.07;;;;;;;21.42;69.37;101839.66;4966066;28;96898;-81
2023/06/23 11:12:38;;;;;;;8.90;6.70;;;;;;;21.48;69.77;101834.69;4981813;28;97456;-80
2023/06/23 11:15:20;;;;;;;7.53;6.80;;;;;;;21.53;69.35;101850.66;4980394;28;98699;-81
2023/06/23 11:17:46;;;;;;;7.70;5.53;;;;;;;21.58;69.30;101841.34;4967023;28;99130;-80
2023/06/23 11:20:12;;;;;;;6.93;6.23;;;;;;;21.61;69.26;101849.44;4966308;28;97413;-82
2023/06/23 11:22:40;;;;;;;7.33;6.50;;;;;;;21.63;69.36;101858.06;4981392;28;98077;-82
2023/06/23 11:25:06;;;;;;;7.37;6.67;;;;;;;21.65;69.37;101863.88;4962692;28;99801;-82
2023/06/23 11:27:31;;;;;;;8.33;6.60;;;;;;;21.70;69.30;101853.84;4979255;28;98207;-82
2023/06/23 11:30:17;;;;;;;6.50;5.90;;;;;;;21.76;69.96;101859.31;4979169;28;98491;-82